createdAt,value
2023-01-12T00:00:25.594Z,100285.59
2023-01-12T00:01:28.230Z,100271.03
2023-01-12T00:02:30.205Z,100296.94
2023-01-12T00:03:32.773Z,100291.66
2023-01-12T00:04:34.866Z,100277.13
2023-01-12T00:05:36.610Z,100299.63
2023-01-12T00:06:39.113Z,100280.38
2023-01-12T00:07:40.680Z,100264.19
2023-01-12T00:08:42.874Z,100269.28
2023-01-12T00:09:44.837Z,100288.38
2023-01-12T00:10:46.662Z,100280.53
2023-01-12T00:11:48.837Z,100278.72
2023-01-12T00:12:50.629Z,100272.91
2023-01-12T00:13:52.258Z,100286.41
2023-01-12T00:14:53.930Z,100288.06
2023-01-12T00:16:17.833Z,100288.38
2023-01-12T00:17:19.863Z,100295.53
2023-01-12T00:18:21.834Z,100262.81
2023-01-12T00:19:24.031Z,100279.03
2023-01-12T00:20:25.724Z,100277.13
2023-01-12T00:21:27.476Z,100267.69
2023-01-12T00:22:29.085Z,100282.22
2023-01-12T00:23:30.812Z,100280.53
2023-01-12T00:24:32.873Z,100280.66
2023-01-12T00:25:34.516Z,100275.75
2023-01-12T00:26:36.669Z,100273.22
2023-01-12T00:27:38.347Z,100280.31
2023-01-12T00:28:41.572Z,100275.38
2023-01-12T00:29:45.347Z,100276.97
2023-01-12T00:30:47.105Z,100257.31
2023-01-12T00:31:49.353Z,100274.44
2023-01-12T00:32:51.795Z,100276.09
2023-01-12T00:33:53.676Z,100270.66
2023-01-12T00:34:55.411Z,100265.09
2023-01-12T00:36:03.588Z,100253.56
2023-01-12T00:37:05.618Z,100262.19
2023-01-12T00:38:07.295Z,100268.44
2023-01-12T00:39:09.341Z,100273.94
2023-01-12T00:40:11.959Z,100237.22
2023-01-12T00:41:37.116Z,100264.00
2023-01-12T00:42:57.702Z,100266.22
2023-01-12T00:44:18.721Z,100255.91
2023-01-12T00:45:25.926Z,100260.72
2023-01-12T00:46:32.562Z,100258.09
2023-01-12T00:47:35.353Z,100250.84
2023-01-12T00:48:36.922Z,100245.56
2023-01-12T00:49:41.716Z,100252.41
2023-01-12T00:50:43.573Z,100248.34
2023-01-12T00:51:46.304Z,100248.25
2023-01-12T00:52:48.241Z,100235.41
2023-01-12T00:53:50.798Z,100267.31
2023-01-12T00:54:53.069Z,100259.44
2023-01-12T00:55:54.834Z,100238.91
2023-01-12T00:56:57.313Z,100245.63
2023-01-12T00:57:59.381Z,100192.88
2023-01-12T00:59:01.153Z,100228.97
2023-01-12T01:00:04.248Z,100220.38
2023-01-12T01:01:09.146Z,100235.88
2023-01-12T01:02:12.368Z,100233.34
2023-01-12T01:03:14.143Z,100214.47
2023-01-12T01:04:16.154Z,100236.88
2023-01-12T01:05:18.481Z,100218.81
2023-01-12T01:06:21.259Z,100225.94
2023-01-12T01:07:22.987Z,100217.44
2023-01-12T01:08:24.586Z,100226.41
2023-01-12T01:09:26.685Z,100238.84
2023-01-12T01:10:29.936Z,100218.19
2023-01-12T01:11:31.997Z,100245.72
2023-01-12T01:12:33.759Z,100234.84
2023-01-12T01:13:40.915Z,100225.22
2023-01-12T01:14:42.523Z,100232.88
2023-01-12T01:15:44.181Z,100259.72
2023-01-12T01:16:45.983Z,100244.06
2023-01-12T01:17:47.948Z,100252.19
2023-01-12T01:18:50.753Z,100247.69
2023-01-12T01:19:52.335Z,100249.63
2023-01-12T01:20:54.463Z,100264.22
2023-01-12T01:21:55.935Z,100236.31
2023-01-12T01:22:57.710Z,100226.78
2023-01-12T01:23:59.783Z,100255.16
2023-01-12T01:25:02.411Z,100259.50
2023-01-12T01:26:10.847Z,100249.94
2023-01-12T01:27:12.567Z,100254.44
2023-01-12T01:28:15.454Z,100255.25
2023-01-12T01:29:17.541Z,100261.53
2023-01-12T01:30:19.363Z,100233.00
2023-01-12T01:31:24.246Z,100240.81
2023-01-12T01:32:26.037Z,100235.84
2023-01-12T01:33:28.278Z,100223.53
2023-01-12T01:34:30.020Z,100242.75
2023-01-12T01:35:31.875Z,100240.06
2023-01-12T01:36:34.222Z,100213.25
2023-01-12T01:37:36.230Z,100223.75
2023-01-12T01:38:38.132Z,100243.84
2023-01-12T01:39:39.934Z,100236.56
2023-01-12T01:40:43.543Z,100256.09
2023-01-12T01:41:45.852Z,100254.41
2023-01-12T01:42:47.728Z,100236.41
2023-01-12T01:43:57.120Z,100240.81
2023-01-12T01:45:00.745Z,100249.47
2023-01-12T01:46:13.025Z,100247.84
2023-01-12T01:47:27.353Z,100249.09
2023-01-12T01:48:33.999Z,100257.03
2023-01-12T01:49:38.926Z,100231.13
2023-01-12T01:50:53.831Z,100265.97
2023-01-12T01:52:03.275Z,100248.69
2023-01-12T01:53:09.515Z,100249.84
2023-01-12T01:54:11.322Z,100240.13
2023-01-12T01:55:17.177Z,100233.03
2023-01-12T01:56:25.612Z,100249.47
2023-01-12T01:57:36.941Z,100243.38
2023-01-12T01:58:43.148Z,100248.69
2023-01-12T01:59:51.090Z,100234.53
2023-01-12T02:00:54.500Z,100245.84
2023-01-12T02:01:56.402Z,100246.78
2023-01-12T02:03:03.191Z,100249.41
2023-01-12T02:04:06.312Z,100258.91
2023-01-12T02:05:09.267Z,100268.25
2023-01-12T02:06:11.277Z,100251.72
2023-01-12T02:07:13.204Z,100260.56
2023-01-12T02:08:35.172Z,100257.59
2023-01-12T02:09:37.770Z,100247.94
2023-01-12T02:10:39.594Z,100263.28
2023-01-12T02:12:02.390Z,100265.13
2023-01-12T02:13:22.823Z,100243.38
2023-01-12T02:14:43.465Z,100255.38
2023-01-12T02:16:16.960Z,100232.34
2023-01-12T02:17:41.339Z,100247.78
2023-01-12T02:19:07.838Z,100224.56
2023-01-12T02:20:09.435Z,100220.47
2023-01-12T02:21:35.708Z,100210.88
2023-01-12T02:22:59.259Z,100197.88
2023-01-12T02:24:16.585Z,100198.84
2023-01-12T02:25:43.906Z,100203.19
2023-01-12T02:27:07.335Z,100209.28
2023-01-12T02:28:34.132Z,100209.31
2023-01-12T02:29:58.033Z,100207.84
2023-01-12T02:31:38.993Z,100191.38
2023-01-12T02:32:41.036Z,100201.03
2023-01-12T02:33:54.695Z,100190.84
2023-01-12T02:35:07.521Z,100180.91
2023-01-12T02:36:32.588Z,100184.69
2023-01-12T02:37:44.171Z,100229.91
2023-01-12T02:39:04.061Z,100209.59
2023-01-12T02:40:25.456Z,100218.16
2023-01-12T02:41:48.459Z,100222.88
2023-01-12T02:43:06.881Z,100212.28
2023-01-12T02:44:16.644Z,100218.38
2023-01-12T02:45:43.152Z,100213.16
2023-01-12T02:46:50.886Z,100200.09
2023-01-12T02:48:13.418Z,100220.75
2023-01-12T02:49:18.959Z,100216.41
2023-01-12T02:50:32.783Z,100180.38
2023-01-12T02:51:43.989Z,100203.28
2023-01-12T02:52:51.659Z,100198.28
2023-01-12T02:54:06.306Z,100219.06
2023-01-12T02:55:09.625Z,100198.97
2023-01-12T02:56:16.872Z,100218.34
2023-01-12T02:57:23.075Z,100186.16
2023-01-12T02:58:29.073Z,100191.63
2023-01-12T02:59:34.756Z,100183.75
2023-01-12T03:00:39.017Z,100176.22
2023-01-12T03:01:42.905Z,100192.75
2023-01-12T03:02:45.085Z,100205.75
2023-01-12T03:03:48.739Z,100199.69
2023-01-12T03:04:51.208Z,100209.13
2023-01-12T03:05:58.870Z,100205.00
2023-01-12T03:07:01.133Z,100203.28
2023-01-12T03:08:05.952Z,100215.88
2023-01-12T03:09:08.867Z,100214.25
2023-01-12T03:10:29.741Z,100202.09
2023-01-12T03:11:34.833Z,100197.91
2023-01-12T03:12:39.205Z,100193.75
2023-01-12T03:13:57.355Z,100188.63
2023-01-12T03:15:02.663Z,100190.28
2023-01-12T03:16:08.540Z,100185.06
2023-01-12T03:17:17.691Z,100167.94
2023-01-12T03:18:34.901Z,100178.97
2023-01-12T03:19:36.977Z,100175.16
2023-01-12T03:20:45.322Z,100164.81
2023-01-12T03:21:57.307Z,100185.06
2023-01-12T03:23:05.462Z,100173.97
2023-01-12T03:24:17.204Z,100185.94
2023-01-12T03:25:20.951Z,100183.25
2023-01-12T03:26:28.064Z,100179.09
2023-01-12T03:27:48.340Z,100205.81
2023-01-12T03:28:56.548Z,100186.81
2023-01-12T03:30:03.068Z,100186.66
2023-01-12T03:31:11.968Z,100178.56
2023-01-12T03:32:14.848Z,100185.63
2023-01-12T03:33:16.509Z,100163.44
2023-01-12T03:34:19.161Z,100172.38
2023-01-12T03:35:28.941Z,100184.56
2023-01-12T03:37:08.053Z,100171.41
2023-01-12T03:38:22.308Z,100184.59
2023-01-12T03:39:52.599Z,100192.03
2023-01-12T03:41:05.388Z,100154.88
2023-01-12T03:42:24.970Z,100181.72
2023-01-12T03:44:02.757Z,100192.00
2023-01-12T03:45:32.284Z,100183.25
2023-01-12T03:46:41.302Z,100171.94
2023-01-12T03:47:44.011Z,100185.00
2023-01-12T03:49:01.034Z,100173.50
2023-01-12T03:50:12.098Z,100168.22
2023-01-12T03:51:28.746Z,100175.16
2023-01-12T03:52:31.908Z,100171.75
2023-01-12T03:53:36.095Z,100163.00
2023-01-12T03:54:45.059Z,100164.63
2023-01-12T03:55:50.497Z,100143.22
2023-01-12T03:56:54.663Z,100182.91
2023-01-12T03:57:57.135Z,100180.47
2023-01-12T03:58:59.712Z,100183.81
2023-01-12T04:00:04.926Z,100176.84
2023-01-12T04:01:08.626Z,100167.09
2023-01-12T04:02:10.777Z,100160.22
2023-01-12T04:03:15.202Z,100164.78
2023-01-12T04:04:16.883Z,100142.47
2023-01-12T04:05:18.755Z,100151.81
2023-01-12T04:06:20.333Z,100138.94
2023-01-12T04:07:23.848Z,100160.94
2023-01-12T04:08:25.506Z,100149.59
2023-01-12T04:09:28.543Z,100129.97
2023-01-12T04:10:30.554Z,100155.81
2023-01-12T04:11:52.020Z,100138.28
2023-01-12T04:12:54.004Z,100146.91
2023-01-12T04:13:55.893Z,100140.28
2023-01-12T04:14:57.556Z,100161.09
2023-01-12T04:15:59.125Z,100153.84
2023-01-12T04:17:00.770Z,100162.38
2023-01-12T04:18:03.007Z,100155.28
2023-01-12T04:19:04.516Z,100190.22
2023-01-12T04:20:06.383Z,100146.03
2023-01-12T04:21:27.947Z,100155.53
2023-01-12T04:22:44.989Z,100150.53
2023-01-12T04:23:46.814Z,100125.16
2023-01-12T04:24:51.889Z,100125.16
2023-01-12T04:25:53.761Z,100127.94
2023-01-12T04:26:55.682Z,100148.72
2023-01-12T04:28:01.873Z,100141.69
2023-01-12T04:29:03.963Z,100147.81
2023-01-12T04:30:06.648Z,100148.63
2023-01-12T04:31:10.001Z,100153.00
2023-01-12T04:32:11.961Z,100141.69
2023-01-12T04:33:13.892Z,100154.75
2023-01-12T04:34:15.588Z,100156.56
2023-01-12T04:35:17.823Z,100132.44
2023-01-12T04:36:19.373Z,100154.97
2023-01-12T04:37:24.926Z,100154.00
2023-01-12T04:38:26.605Z,100149.69
2023-01-12T04:39:29.437Z,100130.69
2023-01-12T04:40:31.127Z,100130.59
2023-01-12T04:41:33.031Z,100144.94
2023-01-12T04:42:56.656Z,100129.25
2023-01-12T04:43:58.243Z,100148.31
2023-01-12T04:45:00.220Z,100150.13
2023-01-12T04:46:06.975Z,100139.53
2023-01-12T04:47:09.178Z,100134.31
2023-01-12T04:48:16.615Z,100141.88
2023-01-12T04:49:18.190Z,100141.31
2023-01-12T04:50:20.057Z,100129.38
2023-01-12T04:51:22.361Z,100150.78
2023-01-12T04:52:23.995Z,100142.53
2023-01-12T04:53:26.234Z,100135.66
2023-01-12T04:54:28.315Z,100157.81
2023-01-12T04:55:31.394Z,100163.13
2023-01-12T04:56:33.185Z,100164.56
2023-01-12T04:57:35.599Z,100168.00
2023-01-12T04:58:38.943Z,100149.91
2023-01-12T04:59:40.705Z,100164.88
2023-01-12T05:00:42.578Z,100163.06
2023-01-12T05:01:44.340Z,100182.31
2023-01-12T05:02:45.989Z,100179.66
2023-01-12T05:03:48.396Z,100187.66
2023-01-12T05:04:50.703Z,100152.06
2023-01-12T05:05:52.631Z,100162.66
2023-01-12T05:06:54.348Z,100161.00
2023-01-12T05:08:18.151Z,100186.47
2023-01-12T05:09:38.317Z,100166.31
2023-01-12T05:10:40.118Z,100158.72
2023-01-12T05:11:43.344Z,100147.63
2023-01-12T05:12:44.975Z,100153.66
2023-01-12T05:13:47.528Z,100158.72
2023-01-12T05:14:50.097Z,100129.63
2023-01-12T05:15:51.962Z,100156.09
2023-01-12T05:16:53.810Z,100159.69
2023-01-12T05:17:57.070Z,100127.50
2023-01-12T05:18:58.933Z,100145.72
2023-01-12T05:20:01.043Z,100145.16
2023-01-12T05:21:03.596Z,100140.31
2023-01-12T05:22:05.690Z,100146.34
2023-01-12T05:23:08.353Z,100142.28
2023-01-12T05:24:09.976Z,100125.16
2023-01-12T05:25:11.644Z,100134.63
2023-01-12T05:26:14.633Z,100132.69
2023-01-12T05:27:16.222Z,100141.63
2023-01-12T05:28:18.116Z,100127.59
2023-01-12T05:29:19.942Z,100137.81
2023-01-12T05:30:21.627Z,100135.03
2023-01-12T05:31:23.537Z,100137.47
2023-01-12T05:32:26.518Z,100135.44
2023-01-12T05:33:28.118Z,100137.81
2023-01-12T05:34:29.915Z,100130.81
2023-01-12T05:35:32.113Z,100108.44
2023-01-12T05:36:34.206Z,100121.44
2023-01-12T05:37:35.754Z,100107.72
2023-01-12T05:38:37.551Z,100113.69
2023-01-12T05:39:39.046Z,100113.66
2023-01-12T05:40:42.415Z,100084.63
2023-01-12T05:42:02.723Z,100118.72
2023-01-12T05:43:22.948Z,100089.75
2023-01-12T05:44:25.055Z,100088.88
2023-01-12T05:45:26.785Z,100114.94
2023-01-12T05:46:40.242Z,100101.69
2023-01-12T05:47:42.184Z,100084.63
2023-01-12T05:48:44.300Z,100106.28
2023-01-12T05:49:46.037Z,100085.59
2023-01-12T05:50:47.837Z,100093.22
2023-01-12T05:51:49.978Z,100101.16
2023-01-12T05:52:52.576Z,100076.00
2023-01-12T05:53:54.996Z,100100.63
2023-01-12T05:54:56.665Z,100115.00
2023-01-12T05:55:58.573Z,100077.22
2023-01-12T05:57:00.371Z,100090.41
2023-01-12T05:58:02.350Z,100082.03
2023-01-12T05:59:07.426Z,100073.28
2023-01-12T06:00:09.634Z,100070.06
2023-01-12T06:01:11.424Z,100090.78
2023-01-12T06:02:17.628Z,100080.66
2023-01-12T06:03:19.575Z,100088.38
2023-01-12T06:04:21.373Z,100090.94
2023-01-12T06:05:22.952Z,100078.59
2023-01-12T06:06:27.440Z,100071.56
2023-01-12T06:07:30.072Z,100076.09
2023-01-12T06:08:31.947Z,100077.13
2023-01-12T06:09:33.640Z,100070.94
2023-01-12T06:10:37.082Z,100071.00
2023-01-12T06:11:57.665Z,100061.91
2023-01-12T06:13:18.574Z,100063.63
2023-01-12T06:14:20.159Z,100081.03
2023-01-12T06:15:21.959Z,100063.91
2023-01-12T06:16:24.299Z,100066.69
2023-01-12T06:17:26.054Z,100069.13
2023-01-12T06:18:28.000Z,100068.97
2023-01-12T06:19:29.878Z,100057.72
2023-01-12T06:20:31.780Z,100055.09
2023-01-12T06:21:34.659Z,100055.88
2023-01-12T06:22:36.569Z,100054.16
2023-01-12T06:23:38.485Z,100064.53
2023-01-12T06:24:40.525Z,100072.16
2023-01-12T06:25:42.841Z,100060.13
2023-01-12T06:26:45.176Z,100068.63
2023-01-12T06:27:46.845Z,100049.34
2023-01-12T06:28:48.991Z,100035.47
2023-01-12T06:29:50.842Z,100057.06
2023-01-12T06:31:00.970Z,100043.28
2023-01-12T06:32:02.506Z,100036.56
2023-01-12T06:33:04.760Z,100033.16
2023-01-12T06:34:08.539Z,100056.38
2023-01-12T06:35:19.163Z,100038.91
2023-01-12T06:36:21.393Z,100051.03
2023-01-12T06:37:23.232Z,100069.31
2023-01-12T06:38:26.826Z,100059.50
2023-01-12T06:39:29.597Z,100055.19
2023-01-12T06:40:32.727Z,100081.19
2023-01-12T06:41:53.750Z,100063.53
2023-01-12T06:42:55.870Z,100046.03
2023-01-12T06:43:58.162Z,100044.50
2023-01-12T06:45:01.558Z,100020.13
2023-01-12T06:46:03.784Z,100041.09
2023-01-12T06:47:05.479Z,100059.25
2023-01-12T06:48:07.214Z,100032.91
2023-01-12T06:49:09.614Z,100044.34
2023-01-12T06:50:12.059Z,100041.72
2023-01-12T06:51:14.306Z,100040.88
2023-01-12T06:52:16.031Z,100038.34
2023-01-12T06:53:17.607Z,100029.94
2023-01-12T06:54:19.275Z,100044.50
2023-01-12T06:55:21.049Z,100015.78
2023-01-12T06:56:23.670Z,100020.75
2023-01-12T06:57:25.913Z,100037.47
2023-01-12T06:58:27.896Z,100031.53
2023-01-12T06:59:29.652Z,100028.84
2023-01-12T07:00:32.329Z,100035.75
2023-01-12T07:01:34.007Z,100051.31
2023-01-12T07:02:36.100Z,100019.03
2023-01-12T07:03:37.806Z,100020.81
2023-01-12T07:04:41.816Z,100019.16
2023-01-12T07:05:44.197Z,100030.41
2023-01-12T07:06:46.108Z,100020.84
2023-01-12T07:07:47.840Z,100019.91
2023-01-12T07:08:50.276Z,100024.31
2023-01-12T07:09:51.963Z,100012.47
2023-01-12T07:10:54.361Z,100025.19
2023-01-12T07:11:56.138Z,99995.66
2023-01-12T07:13:00.845Z,100023.72
2023-01-12T07:14:02.634Z,100025.06
2023-01-12T07:15:06.381Z,100040.53
2023-01-12T07:16:08.363Z,100036.94
2023-01-12T07:17:10.056Z,100013.63
2023-01-12T07:18:11.637Z,100038.81
2023-01-12T07:19:15.244Z,100028.34
2023-01-12T07:20:17.265Z,100031.59
2023-01-12T07:21:19.694Z,100041.41
2023-01-12T07:22:21.467Z,100052.50
2023-01-12T07:23:23.334Z,100034.16
2023-01-12T07:24:24.893Z,100055.19
2023-01-12T07:25:27.751Z,100047.44
2023-01-12T07:26:29.420Z,100031.53
2023-01-12T07:27:31.296Z,100009.94
2023-01-12T07:28:35.358Z,100038.53
2023-01-12T07:29:37.221Z,100027.97
2023-01-12T07:30:39.039Z,100019.47
2023-01-12T07:31:40.618Z,100034.09
2023-01-12T07:32:42.561Z,100038.44
2023-01-12T07:33:44.226Z,100022.66
2023-01-12T07:34:45.938Z,100018.41
2023-01-12T07:35:48.262Z,100025.19
2023-01-12T07:36:51.777Z,100016.59
2023-01-12T07:37:56.020Z,100030.50
2023-01-12T07:38:57.757Z,99998.56
2023-01-12T07:39:59.479Z,100032.34
2023-01-12T07:41:02.471Z,100055.78
2023-01-12T07:42:22.544Z,100030.44
2023-01-12T07:43:25.310Z,100019.19
2023-01-12T07:44:27.192Z,100019.19
2023-01-12T07:45:30.359Z,100041.03
2023-01-12T07:46:32.563Z,100026.31
2023-01-12T07:47:35.948Z,100025.28
2023-01-12T07:48:37.594Z,100046.25
2023-01-12T07:49:40.927Z,100025.22
2023-01-12T07:50:42.778Z,100058.19
2023-01-12T07:51:44.621Z,100021.78
2023-01-12T07:52:49.052Z,100048.56
2023-01-12T07:53:51.390Z,100050.28
2023-01-12T07:54:53.378Z,99998.75
2023-01-12T07:55:55.039Z,100050.13
2023-01-12T07:56:59.030Z,100035.63
2023-01-12T07:58:07.322Z,100025.78
2023-01-12T07:59:09.030Z,100026.06
2023-01-12T08:00:11.604Z,100039.94
2023-01-12T08:01:13.232Z,100038.00
2023-01-12T08:02:19.592Z,100052.03
2023-01-12T08:03:21.334Z,100047.91
2023-01-12T08:04:23.614Z,100047.84
2023-01-12T08:05:25.718Z,100038.28
2023-01-12T08:06:27.874Z,100081.59
2023-01-12T08:07:32.307Z,100052.78
2023-01-12T08:08:34.288Z,100059.81
2023-01-12T08:09:35.928Z,100046.19
2023-01-12T08:10:39.038Z,100043.81
2023-01-12T08:11:41.006Z,100062.00
2023-01-12T08:12:42.896Z,100072.09
2023-01-12T08:13:44.769Z,100090.28
2023-01-12T08:14:46.755Z,100064.84
2023-01-12T08:15:50.458Z,100080.53
2023-01-12T08:16:54.404Z,100030.22
2023-01-12T08:18:06.151Z,100053.75
2023-01-12T08:19:17.042Z,100056.19
2023-01-12T08:20:35.287Z,100078.59
2023-01-12T08:21:46.357Z,100069.03
2023-01-12T08:22:52.427Z,100071.81
2023-01-12T08:23:59.369Z,100064.03
2023-01-12T08:25:12.323Z,100050.81
2023-01-12T08:26:20.420Z,100056.41
2023-01-12T08:27:25.640Z,100055.34
2023-01-12T08:28:38.464Z,100058.84
2023-01-12T08:29:50.785Z,100031.19
2023-01-12T08:30:52.894Z,100053.97
2023-01-12T08:31:54.513Z,100067.66
2023-01-12T08:32:58.407Z,100061.47
2023-01-12T08:34:00.580Z,100069.47
2023-01-12T08:35:04.673Z,100058.53
2023-01-12T08:36:09.817Z,100061.78
2023-01-12T08:37:14.054Z,100064.59
2023-01-12T08:38:15.851Z,100051.09
2023-01-12T08:39:17.521Z,100066.31
2023-01-12T08:40:19.529Z,100088.03
2023-01-12T08:41:33.313Z,100063.72
2023-01-12T08:42:35.149Z,100080.19
2023-01-12T08:43:55.738Z,100043.47
2023-01-12T08:44:58.245Z,100071.09
2023-01-12T08:46:07.822Z,100083.34
2023-01-12T08:47:30.621Z,100072.88
2023-01-12T08:48:32.504Z,100065.03
2023-01-12T08:49:34.394Z,100074.69
2023-01-12T08:50:36.244Z,100081.72
2023-01-12T08:51:40.926Z,100059.69
2023-01-12T08:52:42.580Z,100077.03
2023-01-12T08:53:44.412Z,100066.66
2023-01-12T08:54:47.531Z,100065.00
2023-01-12T08:55:56.001Z,100105.75
2023-01-12T08:56:57.676Z,100075.19
2023-01-12T08:58:00.959Z,100075.81
2023-01-12T08:59:04.029Z,100085.41
2023-01-12T09:00:07.164Z,100092.47
2023-01-12T09:01:12.706Z,100084.72
2023-01-12T09:02:16.278Z,100068.25
2023-01-12T09:03:18.300Z,100091.66
2023-01-12T09:04:20.329Z,100097.50
2023-01-12T09:05:22.154Z,100095.97
2023-01-12T09:06:32.399Z,100094.78
2023-01-12T09:07:34.117Z,100072.94
2023-01-12T09:08:36.111Z,100112.09
2023-01-12T09:09:38.120Z,100084.09
2023-01-12T09:10:39.675Z,100094.47
2023-01-12T09:11:42.731Z,100094.53
2023-01-12T09:12:44.707Z,100091.00
2023-01-12T09:13:46.426Z,100086.75
2023-01-12T09:14:48.318Z,100091.19
2023-01-12T09:16:01.316Z,100105.00
2023-01-12T09:17:12.792Z,100102.47
2023-01-12T09:18:14.490Z,100076.22
2023-01-12T09:19:16.105Z,100088.16
2023-01-12T09:20:17.791Z,100087.38
2023-01-12T09:21:22.021Z,100090.66
2023-01-12T09:22:24.227Z,100091.63
2023-01-12T09:23:27.544Z,100085.38
2023-01-12T09:24:29.157Z,100050.56
2023-01-12T09:25:30.747Z,100103.56
2023-01-12T09:26:37.972Z,100084.25
2023-01-12T09:27:39.949Z,100088.66
2023-01-12T09:28:44.521Z,100088.47
2023-01-12T09:29:46.827Z,100104.13
2023-01-12T09:30:48.855Z,100097.22
2023-01-12T09:31:50.753Z,100087.63
2023-01-12T09:32:55.161Z,100083.84
2023-01-12T09:33:58.117Z,100095.03
2023-01-12T09:35:00.231Z,100088.22
2023-01-12T09:36:13.652Z,100083.38
2023-01-12T09:37:15.659Z,100089.59
2023-01-12T09:38:17.862Z,100084.94
2023-01-12T09:39:27.219Z,100084.66
2023-01-12T09:40:29.525Z,100091.34
2023-01-12T09:41:56.331Z,100073.84
2023-01-12T09:43:18.293Z,100091.06
2023-01-12T09:44:51.503Z,100075.44
2023-01-12T09:46:12.057Z,100077.25
2023-01-12T09:47:39.880Z,100089.31
2023-01-12T09:48:41.800Z,100087.97
2023-01-12T09:49:53.873Z,100081.16
2023-01-12T09:51:08.053Z,100056.69
2023-01-12T09:52:24.841Z,100054.06
2023-01-12T09:53:35.008Z,100091.81
2023-01-12T09:54:37.137Z,100059.66
2023-01-12T09:56:17.133Z,100049.94
2023-01-12T09:57:31.160Z,100077.94
2023-01-12T09:59:08.262Z,100082.22
2023-01-12T10:00:13.215Z,100064.00
2023-01-12T10:01:29.278Z,100043.19
2023-01-12T10:02:39.512Z,100086.44
2023-01-12T10:03:43.610Z,100040.78
2023-01-12T10:04:48.041Z,100061.97
2023-01-12T10:05:55.025Z,100052.75
2023-01-12T10:06:57.597Z,100057.31
2023-01-12T10:07:59.861Z,100060.09
2023-01-12T10:09:07.255Z,100055.63
2023-01-12T10:10:14.360Z,100035.59
2023-01-12T10:11:30.543Z,100053.84
2023-01-12T10:12:42.298Z,100033.69
2023-01-12T10:14:16.207Z,100031.03
2023-01-12T10:15:32.148Z,100056.28
2023-01-12T10:17:05.567Z,100041.44
2023-01-12T10:18:21.194Z,100042.38
2023-01-12T10:19:49.974Z,100052.06
2023-01-12T10:20:53.186Z,100044.63
2023-01-12T10:21:56.366Z,100041.91
2023-01-12T10:23:10.406Z,100070.53
2023-01-12T10:24:13.273Z,100054.91
2023-01-12T10:25:39.816Z,100044.38
2023-01-12T10:26:46.211Z,100059.84
2023-01-12T10:27:52.471Z,100046.81
2023-01-12T10:28:55.971Z,100062.75
2023-01-12T10:29:58.642Z,100048.78
2023-01-12T10:31:01.074Z,100054.69
2023-01-12T10:32:03.028Z,100068.25
2023-01-12T10:33:18.575Z,100059.53
2023-01-12T10:34:21.505Z,100049.38
2023-01-12T10:35:25.633Z,100066.84
2023-01-12T10:36:27.634Z,100072.88
2023-01-12T10:37:29.333Z,100094.84
2023-01-12T10:38:55.500Z,100060.41
2023-01-12T10:39:58.363Z,100076.69
2023-01-12T10:41:27.224Z,100064.47
2023-01-12T10:42:47.717Z,100046.25
2023-01-12T10:43:55.062Z,100036.19
2023-01-12T10:45:18.759Z,100047.72
2023-01-12T10:46:27.333Z,100067.53
2023-01-12T10:47:34.082Z,100040.88
2023-01-12T10:48:36.464Z,100049.00
2023-01-12T10:49:38.397Z,100031.16
2023-01-12T10:50:40.424Z,100037.53
2023-01-12T10:51:59.344Z,100053.63
2023-01-12T10:53:11.661Z,100047.25
2023-01-12T10:54:19.746Z,100046.72
2023-01-12T10:55:24.064Z,100039.56
2023-01-12T10:56:31.418Z,100039.72
2023-01-12T10:57:33.967Z,100018.03
2023-01-12T10:58:36.319Z,100033.91
2023-01-12T10:59:40.015Z,100022.19
2023-01-12T11:00:48.906Z,100017.19
2023-01-12T11:02:12.420Z,100035.72
2023-01-12T11:03:34.349Z,100011.13
2023-01-12T11:04:48.146Z,100014.91
2023-01-12T11:05:50.825Z,100010.38
2023-01-12T11:06:57.393Z,100020.09
2023-01-12T11:08:00.323Z,100006.34
2023-01-12T11:09:25.476Z,100006.81
2023-01-12T11:10:33.095Z,100008.97
2023-01-12T11:11:35.130Z,99996.69
2023-01-12T11:12:40.277Z,100019.31
2023-01-12T11:13:42.139Z,100029.38
2023-01-12T11:14:44.886Z,100016.56
2023-01-12T11:16:02.453Z,100014.72
2023-01-12T11:17:49.528Z,100020.97
2023-01-12T11:18:56.215Z,100018.28
2023-01-12T11:20:01.721Z,100028.97
2023-01-12T11:21:09.077Z,100000.88
2023-01-12T11:22:18.938Z,100012.22
2023-01-12T11:23:55.871Z,100017.59
2023-01-12T11:25:14.843Z,100009.41
2023-01-12T11:26:21.102Z,99981.72
2023-01-12T11:27:36.506Z,100017.53
2023-01-12T11:28:48.005Z,99998.28
2023-01-12T11:29:56.447Z,99990.31
2023-01-12T11:31:00.923Z,100001.19
2023-01-12T11:32:11.043Z,100022.28
2023-01-12T11:33:24.505Z,100016.34
2023-01-12T11:34:33.134Z,100011.69
2023-01-12T11:35:45.310Z,100017.63
2023-01-12T11:36:52.272Z,100013.00
2023-01-12T11:38:01.264Z,100009.53
2023-01-12T11:39:12.935Z,99994.53
2023-01-12T11:40:34.911Z,100005.38
2023-01-12T11:42:04.703Z,100002.66
2023-01-12T11:43:50.801Z,100011.03
2023-01-12T11:45:07.800Z,100007.34
2023-01-12T11:46:42.645Z,100013.31
2023-01-12T11:47:53.297Z,100013.09
2023-01-12T11:48:58.488Z,100005.16
2023-01-12T11:50:26.096Z,100004.88
2023-01-12T11:51:28.266Z,99992.34
2023-01-12T11:52:30.899Z,99981.88
2023-01-12T11:53:32.974Z,99986.50
2023-01-12T11:54:38.236Z,99992.38
2023-01-12T11:56:14.218Z,99977.94
2023-01-12T11:57:24.545Z,99991.69
2023-01-12T11:58:44.442Z,99975.47
2023-01-12T12:00:26.201Z,99983.53
2023-01-12T12:01:33.867Z,100003.38
2023-01-12T12:02:46.198Z,99968.78
2023-01-12T12:03:55.644Z,99977.66
2023-01-12T12:05:09.074Z,99993.13
2023-01-12T12:06:31.404Z,99977.81
2023-01-12T12:07:45.786Z,99983.06
2023-01-12T12:09:17.285Z,99973.69
2023-01-12T12:10:30.955Z,99963.31
2023-01-12T12:11:53.840Z,99953.13
2023-01-12T12:13:16.598Z,99955.75
2023-01-12T12:14:40.296Z,99969.50
2023-01-12T12:16:03.321Z,99951.25
2023-01-12T12:17:37.249Z,99965.28
2023-01-12T12:19:07.573Z,99961.75
2023-01-12T12:20:31.354Z,99943.22
2023-01-12T12:21:51.503Z,99954.47
2023-01-12T12:23:11.983Z,99957.78
2023-01-12T12:24:32.387Z,99916.16
2023-01-12T12:25:55.931Z,99969.94
2023-01-12T12:27:15.145Z,99938.47
2023-01-12T12:28:46.330Z,99937.63
2023-01-12T12:30:03.384Z,99936.13
2023-01-12T12:31:24.064Z,99938.53
2023-01-12T12:32:34.777Z,99960.91
2023-01-12T12:33:45.258Z,99944.75
2023-01-12T12:35:33.695Z,99944.31
2023-01-12T12:36:54.301Z,99949.44
2023-01-12T12:38:30.443Z,99963.94
2023-01-12T12:39:51.477Z,99963.63
2023-01-12T12:41:41.592Z,99945.91
2023-01-12T12:43:07.983Z,99946.34
2023-01-12T12:44:49.270Z,99936.13
2023-01-12T12:45:54.135Z,99925.91
2023-01-12T12:47:08.158Z,99947.75
2023-01-12T12:48:12.974Z,99965.09
2023-01-12T12:49:22.239Z,99935.13
2023-01-12T12:50:40.756Z,99948.09
2023-01-12T12:51:44.049Z,99937.97